Time;durP1;ratioP1;P1;durP2;ratioP2;P2;SDS_P1;SDS_P2;PMS_P1;PMS_P2;Temp;Humidity;BMP_temperature;BMP_pressure;BME280_temperature;BME280_humidity;BME280_pressure;Samples;Min_cycle;Max_cycle;Signal;HPM_P1;HPM_P2
2023/06/15 00:00:13;;;;;;;3.40;3.08;;;21.50;66.10;;;;;;5036989;28;20044;-84
2023/06/15 00:02:40;;;;;;;3.38;2.78;;;21.50;66.10;;;;;;5036511;28;20025;-83
2023/06/15 00:05:07;;;;;;;6.18;3.20;;;21.50;66.20;;;;;;5036626;28;20053;-83
2023/06/15 00:07:33;;;;;;;5.30;3.28;;;21.50;66.30;;;;;;5019042;28;20044;-84
2023/06/15 00:09:58;;;;;;;4.05;3.20;;;21.40;66.30;;;;;;5037602;28;20025;-82
2023/06/15 00:12:24;;;;;;;4.53;3.42;;;21.40;66.40;;;;;;5019401;28;20029;-80
2023/06/15 00:14:49;;;;;;;4.78;3.10;;;21.40;66.40;;;;;;5038167;28;20037;-84
2023/06/15 00:17:15;;;;;;;3.90;3.20;;;21.40;66.50;;;;;;5037374;28;20025;-84
2023/06/15 00:19:41;;;;;;;5.53;3.30;;;21.40;66.50;;;;;;5026941;28;20061;-82
2023/06/15 00:22:09;;;;;;;5.63;3.20;;;21.40;66.60;;;;;;5045226;28;20495;-84
2023/06/15 00:24:35;;;;;;;3.25;2.95;;;21.40;66.70;;;;;;5038061;28;20029;-84
2023/06/15 00:27:01;;;;;;;3.67;2.85;;;21.40;66.80;;;;;;5037098;28;20128;-84
2023/06/15 00:29:26;;;;;;;3.83;3.15;;;21.40;66.80;;;;;;5037251;28;20515;-86
2023/06/15 00:31:52;;;;;;;3.65;3.22;;;21.40;66.80;;;;;;5037064;28;20037;-85
2023/06/15 00:34:18;;;;;;;3.38;2.92;;;21.30;66.90;;;;;;5019507;28;20384;-85
2023/06/15 00:36:43;;;;;;;4.63;2.90;;;21.30;66.80;;;;;;5036349;28;20029;-85
2023/06/15 00:39:09;;;;;;;5.18;3.00;;;21.40;66.90;;;;;;5019389;28;20040;-83
2023/06/15 00:41:41;;;;;;;3.28;2.63;;;21.30;66.90;;;;;;5037248;28;20464;-85
2023/06/15 00:44:07;;;;;;;4.78;3.20;;;21.30;66.90;;;;;;5036741;28;20048;-85
2023/06/15 00:46:34;;;;;;;4.28;2.92;;;21.30;66.90;;;;;;5036443;28;20503;-84
2023/06/15 00:48:59;;;;;;;3.70;2.75;;;21.30;66.90;;;;;;5036346;28;20038;-84
2023/06/15 00:51:26;;;;;;;4.18;2.90;;;21.30;66.90;;;;;;5035891;28;20091;-84
2023/06/15 00:53:52;;;;;;;4.88;2.70;;;21.30;66.90;;;;;;5036553;28;20037;-85
2023/06/15 00:56:18;;;;;;;5.47;2.90;;;21.30;67.00;;;;;;5036625;28;20393;-85
2023/06/15 00:58:44;;;;;;;5.60;2.90;;;21.30;67.00;;;;;;5035861;28;20037;-85
2023/06/15 01:01:10;;;;;;;3.22;2.60;;;21.20;66.90;;;;;;5036389;28;20479;-85
2023/06/15 01:03:36;;;;;;;3.40;3.00;;;21.20;66.90;;;;;;5035492;28;20023;-84
2023/06/15 01:06:13;;;;;;;7.45;3.30;;;21.20;67.10;;;;;;5036106;28;20544;-84
2023/06/15 01:08:40;;;;;;;3.30;2.90;;;21.10;67.10;;;;;;5035872;28;20041;-84
2023/06/15 01:11:07;;;;;;;4.40;3.25;;;21.10;67.20;;;;;;5036103;28;20491;-84
2023/06/15 01:13:34;;;;;;;4.38;3.00;;;21.10;67.30;;;;;;5036140;28;20026;-83
2023/06/15 01:16:05;;;;;;;3.25;2.75;;;21.10;67.30;;;;;;5017704;28;20387;-83
2023/06/15 01:18:33;;;;;;;3.42;3.10;;;21.10;67.30;;;;;;5035575;28;20029;-84
2023/06/15 01:21:01;;;;;;;3.92;2.90;;;21.10;67.30;;;;;;5035862;28;20029;-85
2023/06/15 01:23:56;;;;;;;4.57;3.30;;;21.10;67.30;;;;;;5036097;28;20033;-84
2023/06/15 01:26:24;;;;;;;4.55;2.90;;;21.10;67.40;;;;;;5034557;28;20033;-84
2023/06/15 01:28:52;;;;;;;4.88;2.90;;;21.00;67.20;;;;;;5017225;28;20037;-84
2023/06/15 01:31:18;;;;;;;3.28;2.92;;;21.00;67.20;;;;;;5036750;28;20025;-85
2023/06/15 01:33:48;;;;;;;3.90;3.10;;;21.00;67.30;;;;;;5036982;28;20112;-83
2023/06/15 01:36:14;;;;;;;5.10;2.75;;;21.00;67.30;;;;;;5037000;28;20022;-84
2023/06/15 01:38:41;;;;;;;3.05;2.60;;;21.00;67.90;;;;;;5035499;28;20033;-82
2023/06/15 01:41:08;;;;;;;5.00;3.03;;;20.90;67.20;;;;;;5035002;28;20041;-83
2023/06/15 01:43:36;;;;;;;3.75;2.70;;;20.90;67.20;;;;;;5017685;28;20051;-83
2023/06/15 01:46:04;;;;;;;4.25;2.88;;;20.90;67.30;;;;;;5018002;28;20128;-83
2023/06/15 01:48:30;;;;;;;3.53;2.67;;;20.80;67.30;;;;;;5034933;28;20116;-84
2023/06/15 01:50:56;;;;;;;3.85;3.22;;;20.80;67.30;;;;;;5017303;28;20037;-84
2023/06/15 01:53:23;;;;;;;4.85;3.25;;;20.80;67.30;;;;;;5034994;28;20112;-83
2023/06/15 01:55:50;;;;;;;4.43;3.17;;;20.70;67.40;;;;;;5035640;28;20046;-84
2023/06/15 01:58:16;;;;;;;4.95;3.22;;;20.70;67.40;;;;;;5035586;28;20048;-83
2023/06/15 02:00:43;;;;;;;3.20;2.65;;;20.70;67.40;;;;;;5034475;28;20021;-83
2023/06/15 02:03:09;;;;;;;7.85;3.60;;;20.60;68.10;;;;;;5033987;28;20045;-85
2023/06/15 02:05:39;;;;;;;3.67;2.97;;;20.60;67.50;;;;;;5034594;28;20052;-84
2023/06/15 02:08:06;;;;;;;4.50;3.35;;;20.60;67.60;;;;;;5016632;28;20053;-84
2023/06/15 02:10:32;;;;;;;7.47;3.08;;;20.60;67.70;;;;;;5034053;28;20033;-84
2023/06/15 02:12:57;;;;;;;3.78;2.90;;;20.50;67.70;;;;;;5016905;28;20028;-84
2023/06/15 02:15:23;;;;;;;4.63;3.30;;;20.50;67.90;;;;;;5034264;28;20386;-84
2023/06/15 02:17:59;;;;;;;4.00;3.28;;;20.40;67.90;;;;;;5034286;28;20056;-85
2023/06/15 02:20:25;;;;;;;4.28;3.10;;;20.40;67.90;;;;;;5035969;28;20029;-75
2023/06/15 02:22:52;;;;;;;4.28;2.90;;;20.40;68.00;;;;;;5048163;28;20029;-83
2023/06/15 02:25:18;;;;;;;4.38;2.90;;;20.40;68.10;;;;;;5036108;28;20100;-81
2023/06/15 02:27:44;;;;;;;5.22;3.58;;;20.30;68.20;;;;;;5017085;28;20025;-84
2023/06/15 02:30:11;;;;;;;5.50;3.33;;;20.30;68.20;;;;;;5033950;28;20151;-83
2023/06/15 02:32:39;;;;;;;3.80;3.22;;;20.30;68.40;;;;;;5033835;28;20044;-84
2023/06/15 02:35:12;;;;;;;3.83;2.90;;;20.30;68.40;;;;;;5034204;28;20034;-83
2023/06/15 02:37:39;;;;;;;3.53;3.20;;;20.20;68.40;;;;;;5034509;28;20100;-83
2023/06/15 02:40:06;;;;;;;5.20;3.17;;;20.20;68.50;;;;;;5034121;28;20033;-83
2023/06/15 02:42:32;;;;;;;5.13;2.80;;;20.20;68.50;;;;;;5015432;28;20025;-84
2023/06/15 02:44:58;;;;;;;3.58;3.00;;;20.20;68.60;;;;;;5016059;28;20026;-84
2023/06/15 02:47:24;;;;;;;5.68;3.70;;;20.20;68.70;;;;;;5033771;28;20037;-83
2023/06/15 02:49:50;;;;;;;3.80;3.10;;;20.20;68.70;;;;;;5015943;28;20033;-84
2023/06/15 02:52:16;;;;;;;5.03;3.00;;;20.20;68.70;;;;;;5033547;28;20036;-83
2023/06/15 02:54:41;;;;;;;4.00;3.55;;;20.20;68.70;;;;;;5034055;28;20084;-83
2023/06/15 02:57:08;;;;;;;4.32;3.08;;;20.20;68.80;;;;;;5034603;28;20033;-83
2023/06/15 02:59:35;;;;;;;5.20;3.70;;;20.20;68.80;;;;;;5034196;28;20064;-84
2023/06/15 03:02:04;;;;;;;4.03;3.55;;;20.20;68.80;;;;;;5032982;28;20036;-83
2023/06/15 03:04:37;;;;;;;5.10;3.90;;;20.20;68.90;;;;;;5033387;28;20120;-83
2023/06/15 03:07:03;;;;;;;4.10;3.28;;;20.10;68.90;;;;;;5033399;28;20057;-83
2023/06/15 03:09:29;;;;;;;5.75;3.75;;;20.10;69.00;;;;;;5033667;28;20072;-83
2023/06/15 03:11:55;;;;;;;5.35;3.38;;;20.10;69.00;;;;;;5015780;28;20064;-83
2023/06/15 03:14:20;;;;;;;5.18;3.30;;;20.10;69.00;;;;;;5032625;28;20072;-84
2023/06/15 03:16:47;;;;;;;5.68;3.65;;;20.10;69.00;;;;;;5033140;28;20079;-83
2023/06/15 03:19:16;;;;;;;6.00;3.35;;;20.10;69.10;;;;;;5015057;28;20037;-83
2023/06/15 03:21:43;;;;;;;8.30;4.00;;;20.10;69.10;;;;;;5033383;28;20061;-83
2023/06/15 03:24:09;;;;;;;5.10;4.00;;;20.10;69.20;;;;;;5032992;28;20399;-81
2023/06/15 03:26:38;;;;;;;4.10;3.50;;;20.10;69.30;;;;;;5032997;28;20100;-85
2023/06/15 03:29:04;;;;;;;4.18;3.33;;;20.10;69.30;;;;;;5033004;28;20037;-84
2023/06/15 03:31:33;;;;;;;4.72;3.70;;;20.10;69.50;;;;;;5032831;28;20144;-81
2023/06/15 03:34:02;;;;;;;5.97;3.47;;;20.10;69.40;;;;;;5032999;28;20368;-83
2023/06/15 03:36:31;;;;;;;5.18;3.30;;;20.10;69.40;;;;;;5032928;28;20044;-80
2023/06/15 03:38:57;;;;;;;5.13;3.20;;;20.10;69.50;;;;;;5031986;28;20033;-83
2023/06/15 03:41:24;;;;;;;4.90;3.45;;;20.20;69.50;;;;;;5033093;28;20041;-84
2023/06/15 03:43:49;;;;;;;5.03;3.33;;;20.20;69.50;;;;;;5032184;28;20026;-83
2023/06/15 03:46:15;;;;;;;4.03;3.10;;;20.20;69.40;;;;;;5032610;28;20079;-82
2023/06/15 03:48:41;;;;;;;3.78;3.30;;;20.30;69.50;;;;;;5033421;28;20056;-84
2023/06/15 03:51:06;;;;;;;4.28;3.75;;;20.30;69.50;;;;;;5033528;28;20033;-85
2023/06/15 03:53:32;;;;;;;3.72;3.17;;;20.40;69.50;;;;;;5015174;28;20025;-85
2023/06/15 03:55:58;;;;;;;4.38;3.30;;;20.40;69.50;;;;;;5032528;28;20609;-81
2023/06/15 03:58:25;;;;;;;3.88;3.08;;;20.40;69.50;;;;;;5032291;28;20065;-75
2023/06/15 04:00:52;;;;;;;3.70;3.05;;;20.50;69.60;;;;;;5032539;28;20037;-83
2023/06/15 04:03:18;;;;;;;5.68;3.95;;;20.50;69.50;;;;;;5014879;28;20033;-85
2023/06/15 04:05:44;;;;;;;4.25;3.40;;;20.50;69.50;;;;;;5031541;28;20095;-84
2023/06/15 04:08:10;;;;;;;4.00;3.55;;;20.60;69.60;;;;;;5032537;28;20063;-84
2023/06/15 04:10:36;;;;;;;3.78;3.10;;;20.60;69.50;;;;;;5032979;28;20034;-83
2023/06/15 04:13:02;;;;;;;4.47;3.10;;;20.60;69.40;;;;;;5032736;28;20036;-84
2023/06/15 04:15:27;;;;;;;3.50;2.85;;;20.70;69.40;;;;;;5032154;28;20484;-84
2023/06/15 04:17:53;;;;;;;3.75;2.97;;;20.70;69.30;;;;;;5032960;28;20029;-83
2023/06/15 04:20:19;;;;;;;3.67;3.38;;;20.80;69.30;;;;;;5032386;28;20029;-84
2023/06/15 04:22:45;;;;;;;4.10;3.17;;;20.80;69.30;;;;;;5034478;28;20056;-82
2023/06/15 04:25:12;;;;;;;5.50;3.30;;;20.90;69.20;;;;;;5047703;28;20026;-83
2023/06/15 04:27:39;;;;;;;7.55;3.72;;;20.90;69.10;;;;;;5025203;28;20149;-84
2023/06/15 04:30:06;;;;;;;3.50;3.20;;;20.90;69.10;;;;;;5036867;28;20116;-85
2023/06/15 04:32:32;;;;;;;4.82;3.25;;;21.00;69.20;;;;;;5036178;28;20080;-83
2023/06/15 04:34:59;;;;;;;4.40;3.28;;;21.00;69.30;;;;;;5036371;28;20029;-84
2023/06/15 04:37:28;;;;;;;3.75;3.20;;;21.00;69.20;;;;;;5018799;28;20025;-84
2023/06/15 04:39:59;;;;;;;4.35;3.60;;;21.10;69.20;;;;;;5034915;28;20055;-83
2023/06/15 04:42:26;;;;;;;4.80;3.00;;;21.10;69.10;;;;;;5035867;28;20040;-83
2023/06/15 04:44:53;;;;;;;5.47;3.50;;;21.20;69.10;;;;;;5035670;28;20025;-84
2023/06/15 04:47:18;;;;;;;4.03;3.17;;;21.30;69.00;;;;;;5036308;28;20049;-84
2023/06/15 04:49:44;;;;;;;4.40;3.10;;;21.30;68.90;;;;;;5035900;28;20416;-84
2023/06/15 04:52:10;;;;;;;4.93;3.60;;;21.40;68.90;;;;;;5035626;28;20025;-84
2023/06/15 04:54:36;;;;;;;5.22;3.30;;;21.50;68.80;;;;;;5034448;28;20025;-82
2023/06/15 04:57:01;;;;;;;3.65;3.08;;;21.50;68.60;;;;;;5034972;28;20042;-85
2023/06/15 04:59:27;;;;;;;5.05;3.25;;;21.60;68.60;;;;;;5035577;28;20387;-84
2023/06/15 05:01:53;;;;;;;4.53;3.55;;;21.60;68.50;;;;;;5035377;28;20030;-83
2023/06/15 05:04:21;;;;;;;4.35;2.67;;;21.70;68.50;;;;;;5035549;28;20033;-84
2023/06/15 05:06:47;;;;;;;4.38;2.95;;;21.70;68.40;;;;;;5034347;28;20049;-84
2023/06/15 05:09:12;;;;;;;3.88;3.22;;;21.80;68.20;;;;;;5034403;28;20036;-84
2023/06/15 05:11:38;;;;;;;4.25;2.85;;;21.90;68.10;;;;;;5034536;28;20034;-83
2023/06/15 05:14:04;;;;;;;4.18;3.00;;;21.90;68.00;;;;;;5035157;28;20048;-81
2023/06/15 05:16:30;;;;;;;3.25;2.70;;;22.00;67.80;;;;;;5034852;28;20029;-88
2023/06/15 05:18:55;;;;;;;3.83;3.00;;;22.00;67.80;;;;;;5035360;28;20042;-83
2023/06/15 05:21:22;;;;;;;4.90;3.10;;;22.10;67.60;;;;;;5033401;28;20026;-79
2023/06/15 05:23:47;;;;;;;4.10;2.83;;;22.10;67.60;;;;;;4998053;28;20399;-78
2023/06/15 05:26:13;;;;;;;3.40;3.10;;;22.20;67.60;;;;;;5020400;28;20026;-76
2023/06/15 05:28:39;;;;;;;3.85;3.25;;;22.30;67.50;;;;;;5034516;28;20449;-81
2023/06/15 05:31:08;;;;;;;4.80;3.05;;;22.30;67.90;;;;;;5034269;28;20120;-78
2023/06/15 05:33:34;;;;;;;5.18;3.20;;;22.30;67.30;;;;;;5034233;28;20076;-81
2023/06/15 05:36:00;;;;;;;3.70;2.83;;;22.40;67.20;;;;;;5008248;28;20024;-87
2023/06/15 05:38:26;;;;;;;4.55;3.40;;;22.40;67.10;;;;;;5034047;28;20456;-86
2023/06/15 05:40:51;;;;;;;6.63;3.20;;;22.50;67.00;;;;;;5034548;28;20029;-78
2023/06/15 05:43:19;;;;;;;7.85;3.10;;;22.50;66.90;;;;;;5034344;28;20026;-79
2023/06/15 05:45:47;;;;;;;3.75;2.60;;;22.50;66.80;;;;;;5033965;28;20025;-78
2023/06/15 05:48:13;;;;;;;4.90;3.33;;;22.60;66.80;;;;;;5026951;28;20042;-79
2023/06/15 05:50:39;;;;;;;5.57;2.75;;;22.60;66.70;;;;;;5042295;28;20032;-79
2023/06/15 05:53:05;;;;;;;3.10;2.75;;;22.60;66.60;;;;;;5035179;28;20032;-79
2023/06/15 05:55:30;;;;;;;2.83;2.60;;;22.70;66.50;;;;;;5033930;28;20033;-79
2023/06/15 05:57:56;;;;;;;3.80;2.70;;;22.70;66.50;;;;;;5033010;28;20018;-80
2023/06/15 06:00:25;;;;;;;3.85;2.90;;;22.70;66.40;;;;;;5033757;28;20033;-77
2023/06/15 06:02:52;;;;;;;4.00;2.50;;;22.70;66.40;;;;;;5010101;28;20139;-79
2023/06/15 06:05:18;;;;;;;3.35;2.90;;;22.80;66.40;;;;;;5033934;28;20119;-78
2023/06/15 06:07:47;;;;;;;2.85;2.55;;;22.80;66.30;;;;;;5033593;28;20036;-78
2023/06/15 06:10:18;;;;;;;5.97;3.40;;;22.80;66.30;;;;;;5033767;28;20107;-78
2023/06/15 06:12:43;;;;;;;3.92;2.90;;;22.90;66.30;;;;;;5034292;28;20033;-80
2023/06/15 06:15:09;;;;;;;4.05;2.80;;;22.90;66.30;;;;;;5034041;28;20030;-78
2023/06/15 06:17:35;;;;;;;3.08;2.50;;;23.00;66.30;;;;;;5033699;28;20455;-76
2023/06/15 06:20:01;;;;;;;4.35;2.95;;;23.00;66.30;;;;;;5033267;28;20120;-77
2023/06/15 06:22:27;;;;;;;5.25;3.10;;;23.00;66.30;;;;;;5034572;28;20031;-81
2023/06/15 06:24:52;;;;;;;3.78;2.80;;;23.00;66.30;;;;;;5040877;28;20057;-80
2023/06/15 06:27:18;;;;;;;4.65;2.90;;;23.00;66.30;;;;;;5034488;28;20081;-79
2023/06/15 06:29:44;;;;;;;4.25;3.17;;;23.10;66.50;;;;;;5033293;28;20032;-81
2023/06/15 06:32:10;;;;;;;3.53;2.78;;;23.00;66.20;;;;;;5032070;28;20025;-76
2023/06/15 06:34:36;;;;;;;5.75;3.28;;;23.10;66.20;;;;;;5033060;28;20022;-87
2023/06/15 06:37:05;;;;;;;4.13;2.58;;;23.00;66.00;;;;;;5033744;28;20463;-81
2023/06/15 06:39:31;;;;;;;3.50;2.75;;;23.10;66.10;;;;;;5032930;28;20018;-79
2023/06/15 06:41:58;;;;;;;3.28;2.88;;;23.10;66.10;;;;;;5015098;28;20036;-79
2023/06/15 06:44:23;;;;;;;4.82;3.40;;;23.10;66.00;;;;;;5032239;28;20032;-79
2023/06/15 06:46:49;;;;;;;4.88;2.70;;;23.10;66.00;;;;;;5033033;28;20375;-82
2023/06/15 06:49:15;;;;;;;5.25;3.08;;;23.20;66.00;;;;;;5028716;28;20037;-81
2023/06/15 06:51:41;;;;;;;5.97;2.90;;;23.20;65.90;;;;;;5033691;28;20029;-87
2023/06/15 06:54:06;;;;;;;6.68;3.05;;;23.30;65.90;;;;;;5034697;28;20459;-81
2023/06/15 06:56:32;;;;;;;4.80;2.80;;;23.30;65.70;;;;;;5033079;28;20459;-80
2023/06/15 06:58:58;;;;;;;2.80;2.60;;;23.30;65.50;;;;;;5033366;28;20030;-81
2023/06/15 07:01:24;;;;;;;3.67;2.85;;;23.40;65.50;;;;;;5032572;28;20083;-82
2023/06/15 07:03:50;;;;;;;2.40;2.20;;;23.40;65.50;;;;;;5032112;28;20021;-84
2023/06/15 07:06:15;;;;;;;5.32;2.67;;;23.50;65.50;;;;;;5034142;28;20056;-82
2023/06/15 07:08:41;;;;;;;2.97;2.60;;;23.50;65.20;;;;;;5032632;28;20391;-81
2023/06/15 07:11:07;;;;;;;4.05;2.55;;;23.60;65.20;;;;;;5034052;28;20083;-82
2023/06/15 07:13:33;;;;;;;3.10;2.60;;;23.60;65.20;;;;;;5034157;28;20029;-83
2023/06/15 07:15:59;;;;;;;4.40;2.50;;;23.60;65.20;;;;;;5034237;28;20104;-83
2023/06/15 07:18:25;;;;;;;6.45;2.60;;;23.70;65.10;;;;;;5033841;28;20156;-82
2023/06/15 07:20:54;;;;;;;3.50;2.60;;;23.70;64.90;;;;;;5016102;28;20049;-82
2023/06/15 07:23:23;;;;;;;2.58;2.20;;;23.70;64.70;;;;;;5033811;28;20032;-83
2023/06/15 07:25:52;;;;;;;3.05;2.75;;;23.80;64.80;;;;;;5034044;28;20459;-82
2023/06/15 07:28:18;;;;;;;3.00;2.70;;;23.90;64.70;;;;;;5033719;28;20387;-83
2023/06/15 07:30:46;;;;;;;3.80;2.80;;;23.90;64.50;;;;;;5016058;28;20040;-84
2023/06/15 07:33:12;;;;;;;2.85;2.35;;;24.00;64.50;;;;;;5016118;28;20035;-83
2023/06/15 07:35:37;;;;;;;3.85;2.88;;;24.00;64.40;;;;;;5033747;28;20104;-83
2023/06/15 07:38:03;;;;;;;2.55;2.35;;;24.10;64.20;;;;;;5034010;28;20472;-83
2023/06/15 07:40:29;;;;;;;3.35;2.55;;;24.10;64.00;;;;;;5033387;28;20021;-83
2023/06/15 07:42:55;;;;;;;3.97;2.88;;;24.10;63.90;;;;;;5033711;28;20037;-84
2023/06/15 07:45:21;;;;;;;3.63;2.70;;;24.20;63.90;;;;;;5033749;28;20025;-84
2023/06/15 07:47:46;;;;;;;2.55;2.35;;;24.20;63.70;;;;;;5033400;28;20432;-82
2023/06/15 07:50:12;;;;;;;3.83;2.90;;;24.20;63.60;;;;;;5033843;28;20120;-83
2023/06/15 07:52:37;;;;;;;4.53;2.80;;;24.30;63.60;;;;;;5033453;28;20025;-83
2023/06/15 07:55:04;;;;;;;3.75;2.70;;;24.30;63.60;;;;;;5033706;28;20083;-82
2023/06/15 07:57:30;;;;;;;2.90;2.42;;;24.30;63.60;;;;;;5033652;28;20036;-84
2023/06/15 07:59:57;;;;;;;4.53;2.58;;;24.30;63.50;;;;;;5033649;28;20025;-82
2023/06/15 08:02:22;;;;;;;3.83;2.75;;;24.30;63.50;;;;;;5036237;28;20176;-82
2023/06/15 08:04:48;;;;;;;4.57;2.78;;;24.30;63.40;;;;;;5037659;28;20511;-82
2023/06/15 08:07:14;;;;;;;2.85;2.33;;;24.30;63.30;;;;;;5038111;28;20032;-82
2023/06/15 08:09:40;;;;;;;3.05;2.72;;;24.30;63.10;;;;;;5037019;28;20033;-83
2023/06/15 08:12:05;;;;;;;2.85;2.55;;;24.30;63.10;;;;;;5037209;28;20037;-82
2023/06/15 08:14:31;;;;;;;4.38;2.50;;;24.30;63.10;;;;;;5037284;28;20034;-82
2023/06/15 08:16:57;;;;;;;3.47;2.60;;;24.40;63.00;;;;;;5037085;28;20120;-83
2023/06/15 08:19:22;;;;;;;3.88;2.60;;;24.40;62.80;;;;;;5038568;28;20084;-81
2023/06/15 08:21:48;;;;;;;3.05;2.55;;;24.40;62.70;;;;;;5041088;28;20025;-84
2023/06/15 08:24:14;;;;;;;4.20;2.60;;;24.50;62.70;;;;;;5039089;28;20048;-82
2023/06/15 08:26:40;;;;;;;3.10;2.53;;;24.60;62.50;;;;;;5019859;28;20025;-83
2023/06/15 08:29:07;;;;;;;3.25;2.50;;;24.60;62.10;;;;;;5037244;28;20033;-84
2023/06/15 08:31:34;;;;;;;4.80;2.58;;;24.60;62.10;;;;;;5036901;28;20112;-83
2023/06/15 08:33:59;;;;;;;2.90;2.60;;;24.70;62.00;;;;;;5037282;28;20363;-83
2023/06/15 08:36:25;;;;;;;3.38;2.50;;;24.60;61.80;;;;;;5019262;28;20022;-84
2023/06/15 08:38:51;;;;;;;5.25;2.83;;;24.60;61.80;;;;;;5036841;28;20060;-85
2023/06/15 08:41:17;;;;;;;3.88;2.58;;;24.60;61.80;;;;;;5037338;28;20127;-85
2023/06/15 08:43:44;;;;;;;3.65;2.35;;;24.60;62.40;;;;;;5036743;28;20026;-83
2023/06/15 08:46:11;;;;;;;8.30;4.75;;;24.60;61.80;;;;;;5036697;28;20057;-83
2023/06/15 08:48:38;;;;;;;4.10;2.70;;;24.70;61.70;;;;;;5036835;28;20490;-83
2023/06/15 08:51:06;;;;;;;8.05;2.63;;;24.60;61.50;;;;;;5036759;28;20037;-84
2023/06/15 08:53:34;;;;;;;2.90;2.50;;;24.60;61.60;;;;;;5037014;28;20032;-84
2023/06/15 08:56:00;;;;;;;4.40;2.88;;;24.60;61.70;;;;;;5035303;28;20501;-83
2023/06/15 08:58:26;;;;;;;4.25;2.35;;;24.60;62.20;;;;;;5036456;28;20112;-84
2023/06/15 09:00:54;;;;;;;4.40;2.65;;;24.60;61.70;;;;;;5036213;28;20057;-83
2023/06/15 09:03:21;;;;;;;3.95;2.60;;;24.60;61.70;;;;;;5036413;28;20100;-83
2023/06/15 09:05:48;;;;;;;3.15;2.40;;;24.60;61.60;;;;;;5036108;28;20065;-84
2023/06/15 09:08:14;;;;;;;3.47;2.50;;;24.70;61.70;;;;;;5018622;28;20120;-83
2023/06/15 09:10:41;;;;;;;3.58;2.20;;;24.70;61.60;;;;;;5036249;28;20053;-83
2023/06/15 09:13:16;;;;;;;3.08;2.40;;;24.70;61.60;;;;;;5017040;28;20416;-85
2023/06/15 09:15:43;;;;;;;4.05;2.75;;;24.80;61.60;;;;;;5019165;28;20379;-84
2023/06/15 09:18:10;;;;;;;4.63;2.65;;;24.90;61.50;;;;;;5036185;28;20025;-84
2023/06/15 09:20:39;;;;;;;4.53;2.30;;;25.00;61.40;;;;;;5036009;28;20083;-85
2023/06/15 09:23:10;;;;;;;4.57;2.60;;;25.10;61.00;;;;;;5036164;28;20037;-84
2023/06/15 09:25:36;;;;;;;3.20;2.70;;;25.10;60.90;;;;;;5040382;28;20036;-82
2023/06/15 09:28:06;;;;;;;5.40;2.60;;;25.10;61.00;;;;;;5017872;28;20463;-83
2023/06/15 09:30:33;;;;;;;4.93;2.45;;;25.10;61.00;;;;;;5017979;28;20120;-84
2023/06/15 09:33:10;;;;;;;4.55;2.80;;;25.20;60.90;;;;;;5035527;28;20033;-84
2023/06/15 09:35:35;;;;;;;2.85;2.50;;;25.30;60.80;;;;;;5017874;28;20030;-84
2023/06/15 09:38:02;;;;;;;3.50;2.08;;;25.40;60.70;;;;;;5035445;28;20028;-84
2023/06/15 09:40:31;;;;;;;4.47;2.35;;;25.50;60.60;;;;;;5035271;28;20065;-84
2023/06/15 09:42:58;;;;;;;3.60;2.28;;;25.60;60.40;;;;;;5035789;28;20104;-83
2023/06/15 09:45:24;;;;;;;3.85;2.40;;;25.60;60.20;;;;;;5035580;28;20140;-83
2023/06/15 09:47:56;;;;;;;3.20;2.25;;;25.60;60.10;;;;;;5035583;28;20048;-83
2023/06/15 09:50:31;;;;;;;3.08;2.42;;;25.60;60.10;;;;;;5034760;28;20040;-83
2023/06/15 09:52:58;;;;;;;2.10;1.88;;;25.60;60.20;;;;;;5035402;28;20021;-83
2023/06/15 09:55:24;;;;;;;3.17;2.88;;;25.60;60.20;;;;;;5035430;28;20040;-83
2023/06/15 09:57:52;;;;;;;3.42;2.60;;;25.50;60.10;;;;;;5017688;28;20029;-82
2023/06/15 10:00:18;;;;;;;4.38;2.63;;;25.50;60.10;;;;;;5017428;28;20140;-82
2023/06/15 10:02:47;;;;;;;4.00;2.70;;;25.50;60.20;;;;;;5035106;28;20104;-84
2023/06/15 10:05:15;;;;;;;3.67;2.20;;;25.50;60.70;;;;;;5035042;28;20056;-83
2023/06/15 10:07:46;;;;;;;3.42;2.38;;;25.50;60.20;;;;;;5036270;28;20056;-84
2023/06/15 10:10:13;;;;;;;3.38;2.70;;;25.50;60.10;;;;;;5036039;28;20056;-84
2023/06/15 10:12:43;;;;;;;4.47;2.40;;;25.40;60.10;;;;;;5022850;28;20068;-82
2023/06/15 10:15:12;;;;;;;4.82;2.60;;;25.50;60.20;;;;;;5045983;28;20083;-83
2023/06/15 10:17:40;;;;;;;3.05;2.50;;;25.40;60.20;;;;;;5038748;28;20034;-84
2023/06/15 10:20:16;;;;;;;3.63;2.47;;;25.40;60.20;;;;;;5018158;28;20036;-84
2023/06/15 10:23:04;;;;;;;2.67;2.28;;;25.50;60.20;;;;;;5035429;28;20029;-83
2023/06/15 10:25:31;;;;;;;3.45;2.38;;;25.50;59.60;;;;;;5035162;28;20029;-84
2023/06/15 10:28:09;;;;;;;3.47;2.03;;;25.60;59.90;;;;;;5035113;28;20029;-84
2023/06/15 10:30:44;;;;;;;3.15;2.35;;;25.70;59.90;;;;;;5035427;28;20065;-83
2023/06/15 10:33:15;;;;;;;3.53;2.50;;;25.70;59.50;;;;;;5034681;28;20033;-84
2023/06/15 10:35:49;;;;;;;6.32;2.45;;;25.80;59.40;;;;;;5017450;28;20470;-83
2023/06/15 10:38:24;;;;;;;4.80;2.15;;;25.90;59.20;;;;;;5017225;28;20064;-83
2023/06/15 10:40:50;;;;;;;4.57;2.40;;;26.00;58.80;;;;;;5034442;28;20021;-84
2023/06/15 10:43:20;;;;;;;4.57;2.33;;;26.10;58.90;;;;;;5016767;28;20037;-84
2023/06/15 10:45:46;;;;;;;4.47;2.38;;;26.10;58.80;;;;;;5034395;28;20082;-84
2023/06/15 10:48:26;;;;;;;2.83;2.30;;;26.00;58.70;;;;;;5016979;28;20379;-84
2023/06/15 10:51:02;;;;;;;3.15;2.50;;;26.00;57.70;;;;;;5016802;28;20034;-84
2023/06/15 10:53:29;;;;;;;4.90;2.25;;;25.90;58.70;;;;;;5034614;28;20072;-83
2023/06/15 10:55:58;;;;;;;3.17;2.28;;;25.90;58.80;;;;;;5034571;28;20033;-84
2023/06/15 10:58:26;;;;;;;3.03;2.25;;;26.00;58.90;;;;;;5034238;28;20380;-83
2023/06/15 11:01:13;;;;;;;2.75;2.10;;;26.00;58.80;;;;;;5034065;28;20029;-83
2023/06/15 11:03:42;;;;;;;2.65;2.05;;;26.10;58.10;;;;;;5034418;28;20029;-82
2023/06/15 11:06:18;;;;;;;3.38;2.30;;;26.10;58.30;;;;;;5034262;28;20053;-84
2023/06/15 11:08:48;;;;;;;3.80;2.40;;;26.10;58.50;;;;;;5034470;28;20036;-83
2023/06/15 11:11:17;;;;;;;2.65;2.10;;;26.00;58.40;;;;;;5034160;28;20034;-85
2023/06/15 11:14:05;;;;;;;4.15;2.33;;;26.00;58.50;;;;;;5034557;28;20036;-83
2023/06/15 11:16:39;;;;;;;2.40;2.20;;;26.10;57.90;;;;;;5034176;28;20407;-85
2023/06/15 11:19:24;;;;;;;3.17;2.10;;;26.10;58.10;;;;;;5016421;28;20037;-84
2023/06/15 11:22:01;;;;;;;4.50;2.47;;;26.00;57.80;;;;;;5034158;28;20463;-85
2023/06/15 11:24:34;;;;;;;2.35;2.00;;;26.00;58.20;;;;;;5016277;28;20025;-84
2023/06/15 11:27:09;;;;;;;4.35;2.25;;;25.90;58.10;;;;;;5034440;28;20025;-84
2023/06/15 11:29:40;;;;;;;4.88;2.47;;;26.00;58.00;;;;;;5033299;28;20430;-84
2023/06/15 11:32:07;;;;;;;6.85;2.30;;;25.90;58.10;;;;;;5034588;28;20036;-85
2023/06/15 11:34:33;;;;;;;2.90;2.25;;;25.90;58.20;;;;;;5034025;28;20022;-85
2023/06/15 11:37:00;;;;;;;3.50;2.30;;;26.00;58.20;;;;;;5034634;28;20029;-84
2023/06/15 11:39:28;;;;;;;4.03;2.42;;;26.00;58.00;;;;;;5034214;28;20033;-84
2023/06/15 11:41:56;;;;;;;2.20;1.90;;;26.00;58.00;;;;;;5016215;28;20044;-84
2023/06/15 11:44:23;;;;;;;4.82;2.35;;;26.10;58.00;;;;;;5016447;28;20096;-84
2023/06/15 11:46:57;;;;;;;2.25;1.90;;;26.20;57.90;;;;;;5033734;28;20064;-85
2023/06/15 11:49:23;;;;;;;4.20;2.40;;;26.20;57.50;;;;;;5016142;28;20080;-83
2023/06/15 11:51:52;;;;;;;3.70;2.13;;;26.30;57.60;;;;;;5016270;28;20408;-85
2023/06/15 11:54:24;;;;;;;4.15;2.40;;;26.30;57.40;;;;;;5015643;28;20493;-74
2023/06/15 11:56:49;;;;;;;3.97;2.28;;;26.30;57.30;;;;;;5032394;28;20069;-76
2023/06/15 11:59:17;;;;;;;4.68;2.08;;;26.30;57.40;;;;;;5033533;28;20056;-76
2023/06/15 12:01:43;;;;;;;2.08;1.88;;;26.30;57.50;;;;;;5033401;28;20029;-76
2023/06/15 12:04:13;;;;;;;2.75;2.00;;;26.30;57.20;;;;;;5033357;28;20357;-77
2023/06/15 12:06:48;;;;;;;3.00;2.30;;;26.30;57.00;;;;;;5033707;28;20045;-76
2023/06/15 12:09:15;;;;;;;2.30;1.90;;;26.30;56.90;;;;;;5015512;28;20033;-76
2023/06/15 12:11:42;;;;;;;3.40;2.10;;;26.30;57.10;;;;;;5033351;28;20029;-75
2023/06/15 12:14:16;;;;;;;2.92;2.13;;;26.30;57.10;;;;;;5033332;28;20037;-76
2023/06/15 12:16:51;;;;;;;3.55;2.20;;;26.30;57.00;;;;;;5015336;28;20064;-76
2023/06/15 12:19:18;;;;;;;2.75;2.10;;;26.30;56.90;;;;;;5033671;28;20468;-76
2023/06/15 12:21:44;;;;;;;3.70;2.10;;;26.30;56.70;;;;;;5033285;28;20108;-75
2023/06/15 12:24:13;;;;;;;2.97;2.20;;;26.30;57.30;;;;;;5032973;28;20026;-76
2023/06/15 12:26:39;;;;;;;3.10;2.22;;;26.30;56.60;;;;;;5033022;28;20030;-75
2023/06/15 12:29:15;;;;;;;3.60;2.30;;;26.30;56.60;;;;;;5015340;28;20091;-75
2023/06/15 12:31:41;;;;;;;2.67;2.13;;;26.30;56.10;;;;;;5033344;28;20022;-76
2023/06/15 12:34:09;;;;;;;3.75;2.70;;;26.30;56.40;;;;;;5033302;28;20112;-76
2023/06/15 12:36:39;;;;;;;3.40;2.40;;;26.20;56.40;;;;;;5033029;28;20034;-76
2023/06/15 12:39:10;;;;;;;4.07;2.08;;;26.20;56.60;;;;;;5015048;28;20029;-76
2023/06/15 12:41:41;;;;;;;2.38;2.10;;;26.30;56.60;;;;;;5032976;28;20030;-75
2023/06/15 12:44:07;;;;;;;2.88;2.03;;;26.40;56.50;;;;;;5033191;28;20029;-75
2023/06/15 12:46:36;;;;;;;2.72;2.30;;;26.40;56.30;;;;;;5016341;28;20033;-75
2023/06/15 12:49:03;;;;;;;3.42;2.40;;;26.40;56.30;;;;;;5036287;28;20539;-76